sensor_id;sensor_type;location;lat;lon;timestamp;P1;P2;P0
45112;PMS5003;30873;53.908;27.576;2022-12-18T00:00:07;24;17.6;10.6
45112;PMS5003;30873;53.908;27.576;2022-12-18T00:05:04;19.4;15;7.9
45112;PMS5003;30873;53.908;27.576;2022-12-18T00:09:40;22.1;15.7;8.6
45112;PMS5003;30873;53.908;27.576;2022-12-18T00:14:20;20.2;16.1;8.6
45112;PMS5003;30873;53.908;27.576;2022-12-18T00:19:54;21.2;16.9;10.1
45112;PMS5003;30873;53.908;27.576;2022-12-18T00:25:06;20.4;17.3;9.7
45112;PMS5003;30873;53.908;27.576;2022-12-18T00:30:04;24.8;19.4;12.1
45112;PMS5003;30873;53.908;27.576;2022-12-18T00:34:50;25.8;22.4;14.8
45112;PMS5003;30873;53.908;27.576;2022-12-18T00:39:42;25.5;19.2;11.6
45112;PMS5003;30873;53.908;27.576;2022-12-18T00:44:42;31.6;28.3;21
45112;PMS5003;30873;53.908;27.576;2022-12-18T00:49:50;33.2;28.7;20.8
45112;PMS5003;30873;53.908;27.576;2022-12-18T00:55:04;37.2;31.9;22.9
45112;PMS5003;30873;53.908;27.576;2022-12-18T00:59:40;47.1;40.8;30.4
45112;PMS5003;30873;53.908;27.576;2022-12-18T01:04:38;35.2;31.9;23.6
45112;PMS5003;30873;53.908;27.576;2022-12-18T01:09:38;39.8;33.1;24.1
45112;PMS5003;30873;53.908;27.576;2022-12-18T01:14:52;52;44.3;33.9
45112;PMS5003;30873;53.908;27.576;2022-12-18T01:20:11;39.3;33.9;22.4
45112;PMS5003;30873;53.908;27.576;2022-12-18T01:24:54;39.3;33.9;22.4
45112;PMS5003;30873;53.908;27.576;2022-12-18T01:29:58;47.6;39.1;26.5
45112;PMS5003;30873;53.908;27.576;2022-12-18T01:34:20;38.1;33.2;21.4
45112;PMS5003;30873;53.908;27.576;2022-12-18T01:39:54;48.7;38.5;26.3
45112;PMS5003;30873;53.908;27.576;2022-12-18T01:45:08;43.7;37.1;25.6
45112;PMS5003;30873;53.908;27.576;2022-12-18T01:49:20;49.7;40.6;27.9
45112;PMS5003;30873;53.908;27.576;2022-12-18T01:54:34;42;35.8;23.2
45112;PMS5003;30873;53.908;27.576;2022-12-18T01:59:40;40.3;33.4;22
45112;PMS5003;30873;53.908;27.576;2022-12-18T02:05:09;43;35.4;23.7
45112;PMS5003;30873;53.908;27.576;2022-12-18T02:10:10;45.3;38.1;25.9
45112;PMS5003;30873;53.908;27.576;2022-12-18T02:14:59;42.6;34.2;24.1
45112;PMS5003;30873;53.908;27.576;2022-12-18T02:20:00;41.5;35.4;24
45112;PMS5003;30873;53.908;27.576;2022-12-18T02:24:33;45.7;37.6;25.8
45112;PMS5003;30873;53.908;27.576;2022-12-18T02:30:08;45.9;37.3;26.1
45112;PMS5003;30873;53.908;27.576;2022-12-18T02:35:10;47.4;38.9;27.7
45112;PMS5003;30873;53.908;27.576;2022-12-18T02:40:09;24.1;20.1;11.3
45112;PMS5003;30873;53.908;27.576;2022-12-18T02:44:42;27.3;22.6;12
45112;PMS5003;30873;53.908;27.576;2022-12-18T02:49:34;29.6;23.6;13
45112;PMS5003;30873;53.908;27.576;2022-12-18T02:55:14;25.3;21.1;11.5
45112;PMS5003;30873;53.908;27.576;2022-12-18T03:00:10;23.5;19;10.9
45112;PMS5003;30873;53.908;27.576;2022-12-18T03:05:10;28;20.5;10.2
45112;PMS5003;30873;53.908;27.576;2022-12-18T03:09:56;22.4;17.6;9.4
45112;PMS5003;30873;53.908;27.576;2022-12-18T03:14:44;23.5;19.4;10.2
45112;PMS5003;30873;53.908;27.576;2022-12-18T03:20:07;20.2;17.4;9.9
45112;PMS5003;30873;53.908;27.576;2022-12-18T03:25:07;22.3;17.4;9.3
45112;PMS5003;30873;53.908;27.576;2022-12-18T03:29:43;20.9;16.2;9.6
45112;PMS5003;30873;53.908;27.576;2022-12-18T03:34:42;20.7;17.1;9.3
45112;PMS5003;30873;53.908;27.576;2022-12-18T03:39:44;21.5;17.9;10.3
45112;PMS5003;30873;53.908;27.576;2022-12-18T03:45:07;21.2;18;10.1
45112;PMS5003;30873;53.908;27.576;2022-12-18T03:50:10;18.9;16;9.1
45112;PMS5003;30873;53.908;27.576;2022-12-18T03:54:54;21.8;18.4;10.2
45112;PMS5003;30873;53.908;27.576;2022-12-18T04:00:00;18.8;14.7;7.8
45112;PMS5003;30873;53.908;27.576;2022-12-18T04:04:32;19.8;16.4;8.9
45112;PMS5003;30873;53.908;27.576;2022-12-18T04:10:10;17;13.6;7
45112;PMS5003;30873;53.908;27.576;2022-12-18T04:14:56;17;13.6;7
45112;PMS5003;30873;53.908;27.576;2022-12-18T04:19:56;17.2;15.4;8.1
45112;PMS5003;30873;53.908;27.576;2022-12-18T04:24:44;17.6;14.6;8
45112;PMS5003;30873;53.908;27.576;2022-12-18T04:29:44;17.9;14.6;8.2
45112;PMS5003;30873;53.908;27.576;2022-12-18T04:35:10;18.1;15.2;8.6
45112;PMS5003;30873;53.908;27.576;2022-12-18T04:39:30;18.1;15.2;8.6
45112;PMS5003;30873;53.908;27.576;2022-12-18T04:44:55;18.5;15;8.4
45112;PMS5003;30873;53.908;27.576;2022-12-18T04:49:58;17.9;14.7;8.4
45112;PMS5003;30873;53.908;27.576;2022-12-18T04:54:20;18.6;14.9;8.9
45112;PMS5003;30873;53.908;27.576;2022-12-18T05:00:09;18.9;14.6;8.8
45112;PMS5003;30873;53.908;27.576;2022-12-18T05:04:22;18;14.6;8.3
45112;PMS5003;30873;53.908;27.576;2022-12-18T05:09:32;20.7;16.2;9.1
45112;PMS5003;30873;53.908;27.576;2022-12-18T05:14:44;17.4;14.5;9
45112;PMS5003;30873;53.908;27.576;2022-12-18T05:19:42;20.3;16.1;8.6
45112;PMS5003;30873;53.908;27.576;2022-12-18T05:25:08;19.1;15.3;9.2
45112;PMS5003;30873;53.908;27.576;2022-12-18T05:29:20;20;16.6;9.5
45112;PMS5003;30873;53.908;27.576;2022-12-18T05:34:56;18;14.7;8.9
45112;PMS5003;30873;53.908;27.576;2022-12-18T05:39:48;19.2;15.8;9.3
45112;PMS5003;30873;53.908;27.576;2022-12-18T05:44:32;18.5;15.2;8.1
45112;PMS5003;30873;53.908;27.576;2022-12-18T05:50:08;20.1;16.6;9.2
45112;PMS5003;30873;53.908;27.576;2022-12-18T05:54:56;19.5;16.3;9.1
45112;PMS5003;30873;53.908;27.576;2022-12-18T05:59:20;19.5;15.7;9
45112;PMS5003;30873;53.908;27.576;2022-12-18T06:04:44;21.1;17.9;10.5
45112;PMS5003;30873;53.908;27.576;2022-12-18T06:09:44;18.4;16.3;9.3
45112;PMS5003;30873;53.908;27.576;2022-12-18T06:15:07;18.2;14.5;8.6
45112;PMS5003;30873;53.908;27.576;2022-12-18T06:19:32;19;15.7;8.8
45112;PMS5003;30873;53.908;27.576;2022-12-18T06:24:56;19.4;15.6;9.3
45112;PMS5003;30873;53.908;27.576;2022-12-18T06:29:50;18.2;15.3;8.8
45112;PMS5003;30873;53.908;27.576;2022-12-18T06:34:46;16.4;14;8.8
45112;PMS5003;30873;53.908;27.576;2022-12-18T06:40:07;17;13.8;8.4
45112;PMS5003;30873;53.908;27.576;2022-12-18T06:44:46;18.1;14.9;9.1
45112;PMS5003;30873;53.908;27.576;2022-12-18T06:49:44;17.6;14.6;9
45112;PMS5003;30873;53.908;27.576;2022-12-18T06:54:44;18.7;16.6;10
45112;PMS5003;30873;53.908;27.576;2022-12-18T06:59:58;21.2;16.8;10.4
45112;PMS5003;30873;53.908;27.576;2022-12-18T07:05:08;18.6;17.3;10.2
45112;PMS5003;30873;53.908;27.576;2022-12-18T07:09:44;21.3;17.4;10.8
45112;PMS5003;30873;53.908;27.576;2022-12-18T07:14:56;22.1;18;10.6
45112;PMS5003;30873;53.908;27.576;2022-12-18T07:19:56;21;17.4;10.9
45112;PMS5003;30873;53.908;27.576;2022-12-18T07:24:48;23;19;10.8
45112;PMS5003;30873;53.908;27.576;2022-12-18T07:30:10;24.2;20.7;12
45112;PMS5003;30873;53.908;27.576;2022-12-18T07:35:10;24;21;12.4
45112;PMS5003;30873;53.908;27.576;2022-12-18T07:39:30;24;21;12.4
45112;PMS5003;30873;53.908;27.576;2022-12-18T07:44:58;25.1;22;13.1
45112;PMS5003;30873;53.908;27.576;2022-12-18T07:49:42;24.8;21.2;12.4
45112;PMS5003;30873;53.908;27.576;2022-12-18T07:55:10;23.3;20.2;12.3
45112;PMS5003;30873;53.908;27.576;2022-12-18T07:59:32;23.3;20.2;12.3
45112;PMS5003;30873;53.908;27.576;2022-12-18T08:05:08;24.2;20.4;12.8
45112;PMS5003;30873;53.908;27.576;2022-12-18T08:10:00;24.6;21.2;12.3
45112;PMS5003;30873;53.908;27.576;2022-12-18T08:14:20;27;21.4;13
45112;PMS5003;30873;53.908;27.576;2022-12-18T08:20:10;24.7;21.3;12.5
45112;PMS5003;30873;53.908;27.576;2022-12-18T08:24:54;24.7;21.3;12.5
45112;PMS5003;30873;53.908;27.576;2022-12-18T08:29:32;26;22.6;13.1
45112;PMS5003;30873;53.908;27.576;2022-12-18T08:34:20;26.8;22.6;14.1
45112;PMS5003;30873;53.908;27.576;2022-12-18T08:39:58;26.5;23.3;13.3
45112;PMS5003;30873;53.908;27.576;2022-12-18T08:45:10;23.6;19.9;12
45112;PMS5003;30873;53.908;27.576;2022-12-18T08:49:32;23.6;19.9;12
45112;PMS5003;30873;53.908;27.576;2022-12-18T08:54:42;21.5;18.5;10.6
45112;PMS5003;30873;53.908;27.576;2022-12-18T08:59:46;22.5;18.9;11.3
45112;PMS5003;30873;53.908;27.576;2022-12-18T09:04:32;22.1;18.2;10.6
45112;PMS5003;30873;53.908;27.576;2022-12-18T09:09:56;21.5;18.2;10.9
45112;PMS5003;30873;53.908;27.576;2022-12-18T09:14:56;19.8;17.3;10
45112;PMS5003;30873;53.908;27.576;2022-12-18T09:19:47;21.5;18.6;10.4
45112;PMS5003;30873;53.908;27.576;2022-12-18T09:24:32;20.4;18.4;9.8
45112;PMS5003;30873;53.908;27.576;2022-12-18T09:30:09;20.7;17.4;9.3
45112;PMS5003;30873;53.908;27.576;2022-12-18T09:35:10;24.4;19.5;11
45112;PMS5003;30873;53.908;27.576;2022-12-18T09:39:20;24.4;19.5;11
45112;PMS5003;30873;53.908;27.576;2022-12-18T09:44:32;20.1;17.8;10.5
45112;PMS5003;30873;53.908;27.576;2022-12-18T09:49:45;19.8;16.7;10.3
45112;PMS5003;30873;53.908;27.576;2022-12-18T09:54:21;21.9;19.1;12
45112;PMS5003;30873;53.908;27.576;2022-12-18T09:59:54;20.9;16.8;10.3
45112;PMS5003;30873;53.908;27.576;2022-12-18T10:04:56;19.2;16.5;10.3
45112;PMS5003;30873;53.908;27.576;2022-12-18T10:09:43;18.7;15.8;9.1
45112;PMS5003;30873;53.908;27.576;2022-12-18T10:14:22;20;16.3;9.6
45112;PMS5003;30873;53.908;27.576;2022-12-18T10:20:09;20.8;16.3;9.8
45112;PMS5003;30873;53.908;27.576;2022-12-18T10:25:13;18.6;15.1;9.4
45112;PMS5003;30873;53.908;27.576;2022-12-18T10:29:20;18.5;15.2;9.4
45112;PMS5003;30873;53.908;27.576;2022-12-18T10:34:30;19.3;15.3;9.2
45112;PMS5003;30873;53.908;27.576;2022-12-18T10:39:21;18.5;15.2;8.4
45112;PMS5003;30873;53.908;27.576;2022-12-18T10:44:21;35;30.4;23.3
45112;PMS5003;30873;53.908;27.576;2022-12-18T10:49:54;18.9;17.3;10.2
45112;PMS5003;30873;53.908;27.576;2022-12-18T10:54:54;18.4;15.9;9.8
45112;PMS5003;30873;53.908;27.576;2022-12-18T10:59:50;19.7;16.8;10.5
45112;PMS5003;30873;53.908;27.576;2022-12-18T11:04:49;20.1;17.2;11.2
45112;PMS5003;30873;53.908;27.576;2022-12-18T11:10:14;17.4;15.2;9.9
45112;PMS5003;30873;53.908;27.576;2022-12-18T11:15:13;21.1;18.3;11.5
45112;PMS5003;30873;53.908;27.576;2022-12-18T11:19:32;20.2;17.7;10.8
45112;PMS5003;30873;53.908;27.576;2022-12-18T11:24:40;20.8;16.9;11.6
45112;PMS5003;30873;53.908;27.576;2022-12-18T11:29:44;20.4;16.9;10.3
45112;PMS5003;30873;53.908;27.576;2022-12-18T11:34:22;36.4;30.8;22.3
45112;PMS5003;30873;53.908;27.576;2022-12-18T11:39:56;44.8;38.4;28.6
45112;PMS5003;30873;53.908;27.576;2022-12-18T11:44:58;88.1;79;69.2
45112;PMS5003;30873;53.908;27.576;2022-12-18T11:49:47;58.1;49;36.8
45112;PMS5003;30873;53.908;27.576;2022-12-18T11:54:44;125.5;120.2;113
45112;PMS5003;30873;53.908;27.576;2022-12-18T12:00:11;45.3;39.3;28
45112;PMS5003;30873;53.908;27.576;2022-12-18T12:05:08;45.3;39.3;28
45112;PMS5003;30873;53.908;27.576;2022-12-18T12:09:22;78.5;75.1;68.4
45112;PMS5003;30873;53.908;27.576;2022-12-18T12:14:47;20.8;17.1;10.9
45112;PMS5003;30873;53.908;27.576;2022-12-18T12:19:48;52;49.2;42.9
45112;PMS5003;30873;53.908;27.576;2022-12-18T12:24:39;19.5;16.8;10.3
45112;PMS5003;30873;53.908;27.576;2022-12-18T12:29:58;23.9;19.2;12
45112;PMS5003;30873;53.908;27.576;2022-12-18T12:35:00;24.4;20.8;13.2
45112;PMS5003;30873;53.908;27.576;2022-12-18T12:39:47;24.8;20.7;13.5
45112;PMS5003;30873;53.908;27.576;2022-12-18T12:44:43;21.7;18.3;11.5
45112;PMS5003;30873;53.908;27.576;2022-12-18T12:50:12;49.1;45.6;36.4
45112;PMS5003;30873;53.908;27.576;2022-12-18T12:55:13;24.6;20.8;13.1
45112;PMS5003;30873;53.908;27.576;2022-12-18T12:59:22;24.6;20.8;13.1
45112;PMS5003;30873;53.908;27.576;2022-12-18T13:04:31;27.9;23.3;15.4
45112;PMS5003;30873;53.908;27.576;2022-12-18T13:10:33;26.9;22.5;13.8
45112;PMS5003;30873;53.908;27.576;2022-12-18T13:14:22;24.3;20.7;12.5
45112;PMS5003;30873;53.908;27.576;2022-12-18T13:20:11;22.8;19;11.1
45112;PMS5003;30873;53.908;27.576;2022-12-18T13:25:40;22.8;19;11.1
45112;PMS5003;30873;53.908;27.576;2022-12-18T13:29:47;23.5;19.5;11.6
45112;PMS5003;30873;53.908;27.576;2022-12-18T13:34:33;24.9;19.5;12.1
45112;PMS5003;30873;53.908;27.576;2022-12-18T13:39:59;24.9;20.8;12.3
45112;PMS5003;30873;53.908;27.576;2022-12-18T13:44:59;25.6;21.1;12.8
45112;PMS5003;30873;53.908;27.576;2022-12-18T13:49:36;21.8;18.2;10.9
45112;PMS5003;30873;53.908;27.576;2022-12-18T13:54:43;25.3;20.8;12.1
45112;PMS5003;30873;53.908;27.576;2022-12-18T14:00:14;23.6;20.3;11.9
45112;PMS5003;30873;53.908;27.576;2022-12-18T14:04:33;25.3;20.7;12.3
45112;PMS5003;30873;53.908;27.576;2022-12-18T14:10:11;22.7;18.7;11.7
45112;PMS5003;30873;53.908;27.576;2022-12-18T14:15:11;22.7;18.7;11.7
45112;PMS5003;30873;53.908;27.576;2022-12-18T14:19:21;23.1;19.7;12.6
45112;PMS5003;30873;53.908;27.576;2022-12-18T14:25:04;24.1;20.1;12.7
45112;PMS5003;30873;53.908;27.576;2022-12-18T14:30:01;24.3;20;12.7
45112;PMS5003;30873;53.908;27.576;2022-12-18T14:35:00;22.2;17.9;10.7
45112;PMS5003;30873;53.908;27.576;2022-12-18T14:39:31;22.3;18.3;10.9
45112;PMS5003;30873;53.908;27.576;2022-12-18T14:44:43;23;20.2;12.2
45112;PMS5003;30873;53.908;27.576;2022-12-18T14:50:01;22.3;18.9;10.7
45112;PMS5003;30873;53.908;27.576;2022-12-18T14:54:33;25.2;20.4;12.2
45112;PMS5003;30873;53.908;27.576;2022-12-18T15:00:14;27.1;22.7;13.9
45112;PMS5003;30873;53.908;27.576;2022-12-18T15:05:16;28.1;23.5;13.9
45112;PMS5003;30873;53.908;27.576;2022-12-18T15:10:00;28.1;23.5;13.9
45112;PMS5003;30873;53.908;27.576;2022-12-18T15:14:21;30;23.3;13.8
45112;PMS5003;30873;53.908;27.576;2022-12-18T15:19:59;28.6;24.1;13.7
45112;PMS5003;30873;53.908;27.576;2022-12-18T15:24:59;32.1;26.1;15.3
45112;PMS5003;30873;53.908;27.576;2022-12-18T15:29:33;28.6;23.7;14.1
45112;PMS5003;30873;53.908;27.576;2022-12-18T15:34:43;27.6;22.7;14
45112;PMS5003;30873;53.908;27.576;2022-12-18T15:39:57;28.2;22.9;13.2
45112;PMS5003;30873;53.908;27.576;2022-12-18T15:44:33;29;24.1;14.9
45112;PMS5003;30873;53.908;27.576;2022-12-18T15:50:11;27.3;23;14.2
45112;PMS5003;30873;53.908;27.576;2022-12-18T15:55:11;26.1;21.6;13.7
45112;PMS5003;30873;53.908;27.576;2022-12-18T15:59:47;26.1;21.6;13.7
45112;PMS5003;30873;53.908;27.576;2022-12-18T16:04:21;28.5;24.7;14.3
45112;PMS5003;30873;53.908;27.576;2022-12-18T16:09:59;27.3;22.8;12.9
45112;PMS5003;30873;53.908;27.576;2022-12-18T16:15:01;27.5;23.4;14.5
45112;PMS5003;30873;53.908;27.576;2022-12-18T16:19:33;28.9;23.8;14.2
45112;PMS5003;30873;53.908;27.576;2022-12-18T16:24:21;28.8;24.1;14.3
45112;PMS5003;30873;53.908;27.576;2022-12-18T16:29:59;34.1;28;16
45112;PMS5003;30873;53.908;27.576;2022-12-18T16:34:21;27.4;23.4;13.8
45112;PMS5003;30873;53.908;27.576;2022-12-18T16:40:12;31.4;24.9;15.2
45112;PMS5003;30873;53.908;27.576;2022-12-18T16:45:12;33.7;27.7;16.3
45112;PMS5003;30873;53.908;27.576;2022-12-18T16:49:47;33.7;27.7;16.3
45112;PMS5003;30873;53.908;27.576;2022-12-18T16:54:33;33.4;27.2;16.7
45112;PMS5003;30873;53.908;27.576;2022-12-18T17:00:01;35.2;29.2;17.9
45112;PMS5003;30873;53.908;27.576;2022-12-18T17:04:59;39.8;32.1;19.3
45112;PMS5003;30873;53.908;27.576;2022-12-18T17:09:33;39;31.2;19.3
45112;PMS5003;30873;53.908;27.576;2022-12-18T17:14:35;38.6;31.3;19.8
45112;PMS5003;30873;53.908;27.576;2022-12-18T17:19:59;40.5;34;21.1
45112;PMS5003;30873;53.908;27.576;2022-12-18T17:24:31;38.6;32;18.4
45112;PMS5003;30873;53.908;27.576;2022-12-18T17:30:09;37;30.3;18.3
45112;PMS5003;30873;53.908;27.576;2022-12-18T17:35:11;38.1;31.1;18.8
45112;PMS5003;30873;53.908;27.576;2022-12-18T17:39:47;38.1;31.1;18.8
45112;PMS5003;30873;53.908;27.576;2022-12-18T17:44:21;38.2;30.7;18.8
45112;PMS5003;30873;53.908;27.576;2022-12-18T17:50:11;39.1;31.1;17.5
45112;PMS5003;30873;53.908;27.576;2022-12-18T17:55:09;39.1;31.1;17.5
45112;PMS5003;30873;53.908;27.576;2022-12-18T17:59:21;42.6;34.4;19.4
45112;PMS5003;30873;53.908;27.576;2022-12-18T18:04:59;36.5;29.4;16.7
45112;PMS5003;30873;53.908;27.576;2022-12-18T18:10:01;36.1;30.5;17.8
45112;PMS5003;30873;53.908;27.576;2022-12-18T18:15:09;39;30.3;17.2
45112;PMS5003;30873;53.908;27.576;2022-12-18T18:20:11;37.2;29.7;17.2
45112;PMS5003;30873;53.908;27.576;2022-12-18T18:24:43;37.2;29.7;17.2
45112;PMS5003;30873;53.908;27.576;2022-12-18T18:29:47;39.1;32.1;19.4
45112;PMS5003;30873;53.908;27.576;2022-12-18T18:34:43;42.7;35.8;23.4
45112;PMS5003;30873;53.908;27.576;2022-12-18T18:40:09;39.5;30.5;18.4
45112;PMS5003;30873;53.908;27.576;2022-12-18T18:45:08;34.1;27.5;15.7
45112;PMS5003;30873;53.908;27.576;2022-12-18T18:49:21;34.4;27.7;16.7
45112;PMS5003;30873;53.908;27.576;2022-12-18T18:55:11;34.3;26.4;16.1
45112;PMS5003;30873;53.908;27.576;2022-12-18T18:59:59;34.3;26.4;16.1
45112;PMS5003;30873;53.908;27.576;2022-12-18T19:04:45;34.9;26.8;14.9
45112;PMS5003;30873;53.908;27.576;2022-12-18T19:10:09;33.1;27;15.1
45112;PMS5003;30873;53.908;27.576;2022-12-18T19:14:33;35.3;27.5;15.3
45112;PMS5003;30873;53.908;27.576;2022-12-18T19:19:33;30;24.8;15.3
45112;PMS5003;30873;53.908;27.576;2022-12-18T19:24:21;32;26.3;14.4
45112;PMS5003;30873;53.908;27.576;2022-12-18T19:30:11;35.7;29.4;16.2
45112;PMS5003;30873;53.908;27.576;2022-12-18T19:35:11;30;25.2;15.6
45112;PMS5003;30873;53.908;27.576;2022-12-18T19:39:45;30;25.2;15.6
45112;PMS5003;30873;53.908;27.576;2022-12-18T19:45:01;37.6;31.9;19.1
45112;PMS5003;30873;53.908;27.576;2022-12-18T19:49:59;30.6;25.8;15.6
45112;PMS5003;30873;53.908;27.576;2022-12-18T19:55:09;39.5;32.4;21.3
45112;PMS5003;30873;53.908;27.576;2022-12-18T20:00:11;46.7;39.6;27.5
45112;PMS5003;30873;53.908;27.576;2022-12-18T20:04:55;46.7;39.6;27.5
45112;PMS5003;30873;53.908;27.576;2022-12-18T20:09:21;43.2;36.6;24.4
45112;PMS5003;30873;53.908;27.576;2022-12-18T20:14:21;42.3;35.3;23.4
45112;PMS5003;30873;53.908;27.576;2022-12-18T20:20:11;36.1;28.2;17.1
45112;PMS5003;30873;53.908;27.576;2022-12-18T20:25:09;36.1;28.2;17.1
45112;PMS5003;30873;53.908;27.576;2022-12-18T20:29:21;40.4;34.9;23.2
45112;PMS5003;30873;53.908;27.576;2022-12-18T20:34:23;41.7;33.2;22
45112;PMS5003;30873;53.908;27.576;2022-12-18T20:40:09;35.4;29.8;18.2
45112;PMS5003;30873;53.908;27.576;2022-12-18T20:45:09;31.5;26.3;15.7
45112;PMS5003;30873;53.908;27.576;2022-12-18T20:50:11;34;28;16.6
45112;PMS5003;30873;53.908;27.576;2022-12-18T20:54:45;34;28;16.6
45112;PMS5003;30873;53.908;27.576;2022-12-18T20:59:47;35;27.8;16.7
45112;PMS5003;30873;53.908;27.576;2022-12-18T21:04:33;34.8;28.9;16.4
45112;PMS5003;30873;53.908;27.576;2022-12-18T21:10:09;31.8;26.9;15.2
45112;PMS5003;30873;53.908;27.576;2022-12-18T21:15:09;31.4;26.2;14.9
45112;PMS5003;30873;53.908;27.576;2022-12-18T21:19:33;36.7;29.7;17.3
45112;PMS5003;30873;53.908;27.576;2022-12-18T21:24:59;32.8;26.6;15
45112;PMS5003;30873;53.908;27.576;2022-12-18T21:30:01;33.3;26.6;14.9
45112;PMS5003;30873;53.908;27.576;2022-12-18T21:35:09;32.6;26.2;14.7
45112;PMS5003;30873;53.908;27.576;2022-12-18T21:40:11;32.1;25.4;14.3
45112;PMS5003;30873;53.908;27.576;2022-12-18T21:44:43;32.1;25.4;14.3
45112;PMS5003;30873;53.908;27.576;2022-12-18T21:50:07;26.6;22.2;12.9
45112;PMS5003;30873;53.908;27.576;2022-12-18T21:54:31;28.8;22.6;12.4
45112;PMS5003;30873;53.908;27.576;2022-12-18T22:00:09;29.1;23.5;12.5
45112;PMS5003;30873;53.908;27.576;2022-12-18T22:05:07;25.3;21.9;12.5
45112;PMS5003;30873;53.908;27.576;2022-12-18T22:09:31;31.6;25;14.9
45112;PMS5003;30873;53.908;27.576;2022-12-18T22:15:07;30.7;25.8;14.1
45112;PMS5003;30873;53.908;27.576;2022-12-18T22:19:57;29.8;24.6;13
45112;PMS5003;30873;53.908;27.576;2022-12-18T22:25:03;29.8;24;13.4
45112;PMS5003;30873;53.908;27.576;2022-12-18T22:29:22;30.8;25.8;14.1
45112;PMS5003;30873;53.908;27.576;2022-12-18T22:34:39;33.8;26.4;14.6
45112;PMS5003;30873;53.908;27.576;2022-12-18T22:39:41;28.9;24.2;13.4
45112;PMS5003;30873;53.908;27.576;2022-12-18T22:44:31;32.2;26.6;14.1
45112;PMS5003;30873;53.908;27.576;2022-12-18T22:50:03;30.8;25;13.8
45112;PMS5003;30873;53.908;27.576;2022-12-18T22:54:39;32.7;27;14
45112;PMS5003;30873;53.908;27.576;2022-12-18T22:59:29;30.7;25.6;13.6
45112;PMS5003;30873;53.908;27.576;2022-12-18T23:04:53;30.6;25.1;13.7
45112;PMS5003;30873;53.908;27.576;2022-12-18T23:09:55;31;24.8;13.8
45112;PMS5003;30873;53.908;27.576;2022-12-18T23:15:05;30.6;24.9;14.3
45112;PMS5003;30873;53.908;27.576;2022-12-18T23:19:29;31.5;26.6;15.3
45112;PMS5003;30873;53.908;27.576;2022-12-18T23:24:31;38.3;29.4;15.7
45112;PMS5003;30873;53.908;27.576;2022-12-18T23:29:45;36.3;26.6;14.4
45112;PMS5003;30873;53.908;27.576;2022-12-18T23:34:29;37.4;28.4;16.1
45112;PMS5003;30873;53.908;27.576;2022-12-18T23:40:05;36.9;30.5;16.6
45112;PMS5003;30873;53.908;27.576;2022-12-18T23:44:51;38.1;29.4;15.8
45112;PMS5003;30873;53.908;27.576;2022-12-18T23:50:07;35.5;29.1;16.5
45112;PMS5003;30873;53.908;27.576;2022-12-18T23:54:44;36.8;29.8;17
45112;PMS5003;30873;53.908;27.576;2022-12-18T23:59:57;37.4;30.3;17.5
